Cuba, New Mexico
Current Conditions -  °F | °C
As of 2:15 PM on Wednesday 26 Nov 2014 (Local Time) from KLAM Reporting Station
Clear Clear  
Wind Chill: 46°   Ceiling: Unl
Heat Index: 48°   Visibility: 10mi
Dew Point: 22°   Wind: 5mph
Humidity: 36%   Direction: 130°SE
Pressure: 30.35"   Gusts: NA
Location:  36.02°N, 106.96°W
Report Text: KLAM 262115Z AUTO 13004KT 10SM CLR 09/M06 A3035 RMK AO2 T00891056
Loading
Personal Weather Stations






























Interactive Weather Map New forecast layout! Learn more

10-Day Weather Forecast

Advertisements
Track Severe Weather on mobile